Time;durP1;ratioP1;P1;durP2;ratioP2;P2;SDS_P1;SDS_P2;PMS_P1;PMS_P2;Temp;Humidity;BMP_temperature;BMP_pressure;BME280_temperature;BME280_humidity;BME280_pressure;Samples;Min_cycle;Max_cycle;Signal;HPM_P1;HPM_P2
2023/08/14 00:01:28;;;;;;;5.05;3.25;;;;;;;23.23;53.38;100600.56;5026161;28;20230;-66
2023/08/14 00:03:56;;;;;;;2.88;2.65;;;;;;;23.15;53.74;100598.34;5026860;28;20283;-61
2023/08/14 00:06:24;;;;;;;4.75;3.15;;;;;;;23.11;53.86;100597.69;5030557;28;20212;-61
2023/08/14 00:08:52;;;;;;;4.50;2.80;;;;;;;23.05;54.06;100598.03;5029645;28;20207;-62
2023/08/14 00:11:21;;;;;;;3.42;2.85;;;;;;;23.02;54.08;100592.94;5028946;28;20198;-61
2023/08/14 00:13:52;;;;;;;3.72;3.00;;;;;;;22.97;54.39;100588.84;5028238;28;20202;-63
2023/08/14 00:16:20;;;;;;;3.28;2.97;;;;;;;22.91;54.58;100590.00;5028577;28;20673;-66
2023/08/14 00:18:49;;;;;;;4.78;2.50;;;;;;;22.84;55.06;100593.91;5026254;28;20252;-62
2023/08/14 00:21:17;;;;;;;2.95;2.75;;;;;;;22.80;55.18;100592.38;5029969;28;20257;-63
2023/08/14 00:23:45;;;;;;;5.35;3.40;;;;;;;22.75;55.43;100592.59;5027502;28;20207;-60
2023/08/14 00:26:13;;;;;;;3.72;2.83;;;;;;;22.73;55.54;100593.63;5028525;28;20245;-61
2023/08/14 00:28:42;;;;;;;3.50;3.20;;;;;;;22.67;55.91;100595.63;5031227;28;20265;-62
2023/08/14 00:31:10;;;;;;;3.17;2.88;;;;;;;22.61;56.13;100592.50;5024372;28;20194;-62
2023/08/14 00:33:38;;;;;;;3.30;3.03;;;;;;;22.58;56.37;100598.75;5021675;28;20203;-61
2023/08/14 00:36:06;;;;;;;3.25;2.92;;;;;;;22.53;56.55;100590.25;5030519;28;20261;-59
2023/08/14 00:38:35;;;;;;;8.00;3.42;;;;;;;22.44;56.89;100596.00;5029716;28;20657;-60
2023/08/14 00:41:03;;;;;;;3.22;2.92;;;;;;;22.38;57.27;100602.41;5027796;28;20219;-61
2023/08/14 00:43:31;;;;;;;5.72;3.40;;;;;;;22.29;57.64;100596.81;5022863;28;20654;-60
2023/08/14 00:46:01;;;;;;;4.07;3.53;;;;;;;22.27;57.94;100598.66;5025171;28;20670;-61
2023/08/14 00:48:30;;;;;;;3.60;3.30;;;;;;;22.25;58.12;100603.13;5027843;28;20202;-64
2023/08/14 00:50:57;;;;;;;4.13;3.40;;;;;;;22.18;58.54;100599.97;5025427;28;20203;-62
2023/08/14 00:53:28;;;;;;;6.97;3.95;;;;;;;22.12;58.89;100605.50;5026947;28;20234;-61
2023/08/14 00:55:56;;;;;;;7.28;3.63;;;;;;;22.09;59.18;100610.88;5025202;28;20206;-61
2023/08/14 00:58:24;;;;;;;4.32;3.90;;;;;;;22.10;59.58;100615.25;5029663;28;20206;-59
2023/08/14 01:00:53;;;;;;;4.07;3.67;;;;;;;22.05;59.75;100604.94;5029725;28;20214;-59
2023/08/14 01:03:24;;;;;;;4.55;3.88;;;;;;;22.01;59.94;100618.31;5030757;28;20206;-60
2023/08/14 01:05:52;;;;;;;4.15;3.67;;;;;;;21.98;60.20;100616.66;5027529;28;20681;-61
2023/08/14 01:08:21;;;;;;;6.97;4.03;;;;;;;22.00;60.51;100616.63;5021645;28;20313;-61
2023/08/14 01:10:59;;;;;;;4.53;3.53;;;;;;;21.96;60.71;100621.16;5025225;28;20585;-61
2023/08/14 01:13:35;;;;;;;5.80;4.28;;;;;;;21.93;61.16;100629.19;5030033;28;20209;-61
2023/08/14 01:16:08;;;;;;;5.63;4.18;;;;;;;21.92;61.36;100627.50;5025803;28;20281;-61
2023/08/14 01:18:41;;;;;;;5.80;4.00;;;;;;;21.88;61.82;100618.06;5028372;28;20578;-61
2023/08/14 01:21:31;;;;;;;4.05;3.75;;;;;;;21.86;62.12;100619.91;5028513;28;20581;-61
2023/08/14 01:24:07;;;;;;;5.13;4.22;;;;;;;21.82;62.29;100629.72;5029076;28;20206;-60
2023/08/14 01:26:37;;;;;;;8.50;4.25;;;;;;;21.80;62.59;100646.44;5027620;28;20429;-62
2023/08/14 01:29:05;;;;;;;5.22;4.47;;;;;;;21.79;62.76;100650.00;5027479;28;20203;-60
2023/08/14 01:31:33;;;;;;;6.38;4.43;;;;;;;21.81;62.72;100653.41;5017089;28;20873;-59
2023/08/14 01:34:01;;;;;;;5.05;4.55;;;;;;;21.86;62.60;100660.13;5028064;28;20563;-65
2023/08/14 01:36:37;;;;;;;4.65;4.25;;;;;;;21.87;62.77;100658.34;5028683;28;20206;-59
2023/08/14 01:39:08;;;;;;;6.45;5.07;;;;;;;21.84;63.02;100646.25;5029034;28;20210;-61
2023/08/14 01:41:44;;;;;;;5.20;4.70;;;;;;;21.83;63.23;100657.63;5024823;28;20670;-62
2023/08/14 01:44:16;;;;;;;6.57;4.93;;;;;;;21.80;63.50;100652.56;5029957;28;20198;-61
2023/08/14 01:46:45;;;;;;;4.93;4.40;;;;;;;21.74;64.00;100657.25;5026047;28;20684;-61
2023/08/14 01:49:15;;;;;;;5.65;5.00;;;;;;;21.73;64.06;100660.81;5025997;28;20285;-64
2023/08/14 01:51:44;;;;;;;5.78;4.88;;;;;;;21.73;64.25;100664.28;5029069;28;20203;-60
2023/08/14 01:54:12;;;;;;;5.85;5.32;;;;;;;21.73;64.55;100656.41;5021123;28;20642;-61
2023/08/14 01:56:42;;;;;;;5.55;4.70;;;;;;;21.67;65.20;100660.16;5024815;28;20265;-66
2023/08/14 01:59:10;;;;;;;8.18;5.13;;;;;;;21.61;65.74;100657.81;5022894;28;20598;-63
2023/08/14 02:01:38;;;;;;;5.63;4.78;;;;;;;21.59;65.93;100646.56;5027029;28;20642;-64
2023/08/14 02:04:07;;;;;;;5.93;5.32;;;;;;;21.54;66.17;100637.19;5030088;28;20260;-61
2023/08/14 02:06:35;;;;;;;5.63;5.05;;;;;;;21.50;66.47;100643.53;5028160;28;20202;-61
2023/08/14 02:09:03;;;;;;;5.57;5.07;;;;;;;21.45;66.76;100644.59;5025509;28;20199;-61
2023/08/14 02:11:31;;;;;;;6.05;4.72;;;;;;;21.44;66.64;100642.06;5025938;28;20897;-60
2023/08/14 02:14:01;;;;;;;5.55;5.03;;;;;;;21.44;66.53;100642.06;5025642;28;21331;-61
2023/08/14 02:16:28;;;;;;;7.18;5.63;;;;;;;21.42;66.81;100631.63;5026668;28;20252;-61
2023/08/14 02:18:56;;;;;;;5.60;5.10;;;;;;;21.38;67.15;100635.31;5028976;28;20822;-62
2023/08/14 02:21:24;;;;;;;5.72;5.25;;;;;;;21.35;67.08;100634.59;5029702;28;20548;-60
2023/08/14 02:23:52;;;;;;;4.97;4.55;;;;;;;21.30;67.48;100639.19;5027440;28;20657;-63
2023/08/14 02:26:20;;;;;;;8.15;5.38;;;;;;;21.30;67.41;100641.81;5029084;28;20600;-62
2023/08/14 02:28:48;;;;;;;7.65;5.53;;;;;;;21.29;67.39;100650.59;5026010;28;20222;-61
2023/08/14 02:31:17;;;;;;;7.53;5.93;;;;;;;21.22;67.58;100645.63;5029132;28;20207;-62
2023/08/14 02:33:45;;;;;;;6.88;5.75;;;;;;;21.20;67.63;100646.63;5024152;28;20614;-60
2023/08/14 02:36:13;;;;;;;6.68;5.40;;;;;;;21.15;67.89;100649.47;5031537;28;20226;-68
2023/08/14 02:38:41;;;;;;;6.93;6.10;;;;;;;21.15;67.75;100652.06;5028984;28;20211;-65
2023/08/14 02:41:09;;;;;;;6.10;5.50;;;;;;;21.09;68.18;100649.72;5030232;28;20199;-60
2023/08/14 02:43:37;;;;;;;6.95;6.22;;;;;;;21.05;68.47;100650.78;5029226;28;20221;-62
2023/08/14 02:46:05;;;;;;;6.40;5.35;;;;;;;21.00;68.91;100655.41;5031190;28;20210;-61
2023/08/14 02:48:34;;;;;;;6.78;6.07;;;;;;;20.95;69.18;100659.97;5033338;28;20203;-60
2023/08/14 02:51:02;;;;;;;6.07;5.53;;;;;;;20.91;69.48;100655.78;5027656;28;20203;-63
2023/08/14 02:53:30;;;;;;;12.15;5.93;;;;;;;20.86;69.38;100656.00;5030211;28;20207;-61
2023/08/14 02:55:58;;;;;;;6.32;5.75;;;;;;;20.85;69.66;100648.22;5033143;28;20253;-61
2023/08/14 02:58:26;;;;;;;6.85;5.85;;;;;;;20.82;69.94;100654.44;5028325;28;20576;-60
2023/08/14 03:00:54;;;;;;;7.82;5.93;;;;;;;20.79;70.05;100645.88;5031913;28;20203;-60
2023/08/14 03:03:22;;;;;;;7.30;5.70;;;;;;;20.74;70.16;100644.31;5025942;28;20676;-61
2023/08/14 03:05:51;;;;;;;7.53;5.97;;;;;;;20.72;70.17;100646.13;5029774;28;20214;-61
2023/08/14 03:08:20;;;;;;;8.25;6.57;;;;;;;20.65;70.43;100642.06;5031619;28;20698;-61
2023/08/14 03:10:47;;;;;;;9.25;6.97;;;;;;;20.61;70.90;100645.75;5029161;28;20297;-61
2023/08/14 03:13:15;;;;;;;7.32;6.22;;;;;;;20.60;70.75;100641.44;5030402;28;20730;-61
2023/08/14 03:15:43;;;;;;;7.68;6.47;;;;;;;20.57;71.17;100644.19;5027767;28;20198;-60
2023/08/14 03:18:11;;;;;;;6.40;5.80;;;;;;;20.60;70.97;100651.91;5031820;28;20203;-61
2023/08/14 03:20:39;;;;;;;7.85;6.63;;;;;;;20.61;71.07;100652.75;5029788;28;20207;-62
2023/08/14 03:23:08;;;;;;;6.85;6.15;;;;;;;20.58;71.10;100648.50;5027747;28;20335;-60
2023/08/14 03:25:36;;;;;;;7.10;6.40;;;;;;;20.58;71.28;100648.50;5027746;28;20654;-61
2023/08/14 03:28:05;;;;;;;6.78;6.10;;;;;;;20.61;71.17;100658.84;5024106;28;20239;-63
2023/08/14 03:30:34;;;;;;;7.30;6.30;;;;;;;20.58;71.23;100653.72;5029916;28;20268;-62
2023/08/14 03:33:02;;;;;;;10.25;6.63;;;;;;;20.57;71.61;100656.44;5028979;28;20199;-62
2023/08/14 03:35:30;;;;;;;7.05;6.35;;;;;;;20.56;71.32;100654.75;5030526;28;20207;-63
2023/08/14 03:37:58;;;;;;;7.03;6.30;;;;;;;20.52;71.58;100659.25;5030849;28;20206;-60
2023/08/14 03:40:27;;;;;;;7.88;6.78;;;;;;;20.49;72.13;100654.13;5030808;28;20264;-60
2023/08/14 03:42:55;;;;;;;7.70;6.82;;;;;;;20.45;72.09;100657.78;5032059;28;20707;-61
2023/08/14 03:45:23;;;;;;;8.18;6.50;;;;;;;20.42;72.23;100652.69;5023085;28;20657;-62
2023/08/14 03:47:51;;;;;;;7.63;6.82;;;;;;;20.40;72.39;100654.50;5028092;28;20211;-61
2023/08/14 03:50:19;;;;;;;7.78;6.70;;;;;;;20.36;72.68;100656.41;5026708;28;20803;-61
2023/08/14 03:52:48;;;;;;;7.53;6.72;;;;;;;20.33;72.84;100637.38;5032284;28;20202;-59
2023/08/14 03:55:16;;;;;;;8.07;7.28;;;;;;;20.31;73.24;100639.19;5031435;28;20281;-60
2023/08/14 03:57:46;;;;;;;8.27;6.47;;;;;;;20.25;73.44;100646.41;5031203;28;20214;-60
2023/08/14 04:00:14;;;;;;;9.70;6.70;;;;;;;20.23;73.55;100650.00;5030215;28;20226;-61
2023/08/14 04:02:42;;;;;;;8.52;6.70;;;;;;;20.22;73.91;100651.75;5027132;28;20249;-59
2023/08/14 04:05:10;;;;;;;7.80;7.00;;;;;;;20.22;73.98;100648.28;5031393;28;20212;-61
2023/08/14 04:07:38;;;;;;;7.43;6.63;;;;;;;20.16;74.08;100641.53;5028472;28;20213;-62
2023/08/14 04:10:07;;;;;;;8.30;7.22;;;;;;;20.25;73.94;100650.75;5022694;28;20202;-62
2023/08/14 04:12:35;;;;;;;12.18;7.28;;;;;;;20.25;73.96;100651.63;5031578;28;20567;-61
2023/08/14 04:15:16;;;;;;;9.60;7.38;;;;;;;20.24;73.97;100659.53;5028075;28;20211;-61
2023/08/14 04:17:44;;;;;;;7.50;6.80;;;;;;;20.22;74.19;100659.59;5021497;28;20206;-60
2023/08/14 04:20:12;;;;;;;8.13;7.05;;;;;;;20.23;74.37;100657.84;5024729;28;20203;-60
2023/08/14 04:22:40;;;;;;;8.70;7.78;;;;;;;20.19;74.64;100659.72;5031610;28;20623;-63
2023/08/14 04:25:09;;;;;;;8.13;7.32;;;;;;;20.24;74.36;100665.59;5026734;28;20723;-63
2023/08/14 04:27:37;;;;;;;8.25;7.55;;;;;;;20.29;74.48;100657.59;5030851;28;20227;-61
2023/08/14 04:30:06;;;;;;;8.93;7.22;;;;;;;20.39;74.34;100653.66;5020912;28;20614;-61
2023/08/14 04:32:36;;;;;;;8.35;7.20;;;;;;;20.46;73.81;100654.25;5030317;28;20681;-61
2023/08/14 04:35:05;;;;;;;8.13;7.40;;;;;;;20.56;73.36;100663.44;5024548;28;20685;-59
2023/08/14 04:37:33;;;;;;;8.50;7.50;;;;;;;20.64;72.95;100663.94;5026436;28;20238;-61
2023/08/14 04:40:00;;;;;;;8.95;7.70;;;;;;;20.70;73.06;100673.31;5029002;28;20206;-59
2023/08/14 04:42:28;;;;;;;8.25;7.45;;;;;;;20.78;72.60;100665.13;5021546;28;20238;-61
2023/08/14 04:44:56;;;;;;;8.32;7.55;;;;;;;20.85;72.39;100669.19;5030441;28;20277;-61
2023/08/14 04:47:24;;;;;;;10.30;7.82;;;;;;;20.91;71.89;100676.75;5030243;28;20708;-60
2023/08/14 04:49:54;;;;;;;9.43;7.50;;;;;;;20.94;71.67;100674.00;5029143;28;20211;-61
2023/08/14 04:52:22;;;;;;;7.60;6.90;;;;;;;21.00;71.33;100671.13;5026298;28;20668;-61
2023/08/14 04:54:50;;;;;;;7.97;6.93;;;;;;;21.09;71.24;100673.31;5022998;28;20196;-61
2023/08/14 04:57:18;;;;;;;8.05;7.25;;;;;;;21.19;70.83;100679.84;5027616;28;20664;-61
2023/08/14 04:59:46;;;;;;;9.98;7.35;;;;;;;21.29;70.38;100690.78;5030291;28;20210;-61
2023/08/14 05:02:14;;;;;;;7.72;6.93;;;;;;;21.44;69.55;100686.63;5027876;28;20202;-61
2023/08/14 05:04:42;;;;;;;7.88;7.05;;;;;;;21.55;69.23;100694.84;5030559;28;20222;-60
2023/08/14 05:07:12;;;;;;;10.65;6.75;;;;;;;21.68;68.65;100695.94;5027830;28;20567;-62
2023/08/14 05:09:40;;;;;;;9.98;7.63;;;;;;;21.82;68.09;100691.81;5029952;28;20225;-61
2023/08/14 05:12:08;;;;;;;8.50;7.65;;;;;;;21.93;67.17;100697.41;5028301;28;20221;-64
2023/08/14 05:14:36;;;;;;;8.98;6.57;;;;;;;22.05;67.02;100691.56;5027391;28;20244;-59
2023/08/14 05:17:04;;;;;;;9.13;6.88;;;;;;;22.29;66.70;100691.31;5026724;28;20198;-61
2023/08/14 05:19:32;;;;;;;7.88;7.03;;;;;;;22.59;65.76;100689.75;5027084;28;20202;-61
2023/08/14 05:22:00;;;;;;;8.10;7.30;;;;;;;22.87;64.31;100693.59;5020327;28;20214;-61
2023/08/14 05:24:29;;;;;;;7.47;6.75;;;;;;;23.24;63.51;100689.91;5020174;28;20224;-61
2023/08/14 05:26:57;;;;;;;7.95;6.43;;;;;;;23.70;62.25;100681.28;5027367;28;20227;-60
2023/08/14 05:29:25;;;;;;;9.30;6.38;;;;;;;24.40;59.73;100686.94;5029673;28;20642;-61
2023/08/14 05:31:53;;;;;;;7.05;6.43;;;;;;;25.51;57.22;100679.25;5030581;28;20219;-60
2023/08/14 05:34:21;;;;;;;10.30;7.20;;;;;;;26.92;52.84;100681.31;5030711;28;20203;-60
2023/08/14 05:36:48;;;;;;;6.90;6.30;;;;;;;28.14;48.83;100670.81;5028484;28;20210;-60
2023/08/14 05:39:18;;;;;;;6.50;5.90;;;;;;;29.37;46.30;100673.59;5025503;28;20206;-61
2023/08/14 05:41:49;;;;;;;9.50;6.47;;;;;;;30.17;42.20;100675.09;5029169;28;20206;-61
2023/08/14 05:44:17;;;;;;;10.48;6.57;;;;;;;29.79;42.56;100686.22;5027060;28;20219;-62
2023/08/14 05:46:45;;;;;;;7.45;5.70;;;;;;;29.45;43.68;100690.72;5028575;28;20546;-60
2023/08/14 05:49:16;;;;;;;7.30;5.63;;;;;;;29.80;42.96;100691.41;5022449;28;20210;-63
2023/08/14 05:51:44;;;;;;;8.70;5.55;;;;;;;30.50;41.11;100694.50;5024924;28;20209;-61
2023/08/14 05:54:12;;;;;;;6.00;5.40;;;;;;;31.22;40.63;100690.94;5028156;28;20231;-60
2023/08/14 05:56:40;;;;;;;8.05;5.53;;;;;;;32.18;38.69;100690.28;5022043;28;20203;-60
2023/08/14 05:59:10;;;;;;;7.40;5.22;;;;;;;33.20;36.53;100676.25;5027804;28;20272;-61
2023/08/14 06:01:39;;;;;;;6.80;5.30;;;;;;;34.00;34.54;100679.13;5025683;28;20206;-62
2023/08/14 06:04:07;;;;;;;6.70;5.55;;;;;;;34.79;32.55;100673.66;5027668;28;20211;-60
2023/08/14 06:06:35;;;;;;;6.15;5.00;;;;;;;35.56;31.60;100676.31;5030509;28;20214;-60
2023/08/14 06:09:04;;;;;;;5.20;4.78;;;;;;;36.63;29.75;100677.19;5033319;28;20297;-60
2023/08/14 06:11:32;;;;;;;6.95;5.20;;;;;;;37.53;27.90;100679.53;5032239;28;20684;-61
2023/08/14 06:14:00;;;;;;;7.78;5.25;;;;;;;37.63;27.30;100688.19;5030886;28;20233;-60
2023/08/14 06:16:29;;;;;;;6.70;5.40;;;;;;;37.35;27.70;100686.00;5031927;28;20210;-60
2023/08/14 06:18:57;;;;;;;5.13;4.50;;;;;;;37.56;27.62;100689.91;5031219;28;20206;-59
2023/08/14 06:21:25;;;;;;;6.63;4.63;;;;;;;38.72;26.82;100681.53;5030249;28;20210;-61
2023/08/14 06:23:53;;;;;;;7.32;5.45;;;;;;;39.58;24.57;100681.78;5026002;28;20223;-59
2023/08/14 06:26:21;;;;;;;6.40;4.90;;;;;;;40.04;24.17;100689.53;5030552;28;20230;-60
2023/08/14 06:28:49;;;;;;;5.05;4.65;;;;;;;40.40;23.72;100685.88;5032958;28;20199;-59
2023/08/14 06:31:18;;;;;;;6.55;4.40;;;;;;;41.00;22.85;100687.91;5031176;28;20194;-61
2023/08/14 06:33:49;;;;;;;5.13;4.63;;;;;;;40.76;23.14;100691.94;5026469;28;20312;-61
2023/08/14 06:36:18;;;;;;;6.22;4.35;;;;;;;40.49;23.34;100690.09;5031747;28;20298;-61
2023/08/14 06:38:46;;;;;;;5.55;4.43;;;;;;;40.92;23.40;100695.34;5025582;28;20211;-61
2023/08/14 06:41:14;;;;;;;7.20;4.65;;;;;;;41.02;22.52;100693.13;5026850;28;20292;-60
2023/08/14 06:43:42;;;;;;;4.95;4.38;;;;;;;40.82;22.73;100700.28;5034052;28;20238;-60
2023/08/14 06:46:09;;;;;;;5.00;4.50;;;;;;;40.64;23.08;100706.19;5034181;28;20202;-61
2023/08/14 06:48:37;;;;;;;4.78;4.38;;;;;;;40.72;22.76;100709.56;5020166;28;20210;-62
2023/08/14 06:51:07;;;;;;;6.10;4.78;;;;;;;40.89;22.95;100701.97;5032389;28;20209;-64
2023/08/14 06:53:35;;;;;;;5.18;4.43;;;;;;;41.18;22.33;100697.34;5033078;28;20218;-63
2023/08/14 06:56:03;;;;;;;6.35;4.25;;;;;;;41.24;22.46;100694.69;5032671;28;20206;-61
2023/08/14 06:58:31;;;;;;;5.80;4.45;;;;;;;41.31;22.18;100683.84;5029412;28;20198;-63
2023/08/14 07:00:59;;;;;;;5.15;4.65;;;;;;;41.08;22.42;100694.19;5027765;28;20210;-61
2023/08/14 07:03:27;;;;;;;4.50;4.10;;;;;;;40.75;22.70;100690.25;5031176;28;20225;-61
2023/08/14 07:05:55;;;;;;;7.55;4.00;;;;;;;40.57;23.34;100689.94;5032868;28;20226;-62
2023/08/14 07:08:24;;;;;;;5.75;4.07;;;;;;;40.11;23.73;100690.41;5033278;28;20237;-62
2023/08/14 07:10:53;;;;;;;6.13;4.05;;;;;;;38.51;25.94;100698.41;5031024;28;20198;-62
2023/08/14 07:13:22;;;;;;;5.55;3.70;;;;;;;38.11;26.60;100695.09;5029015;28;20207;-60
2023/08/14 07:15:50;;;;;;;7.00;4.15;;;;;;;38.35;25.75;100694.03;5027698;28;20228;-62
2023/08/14 07:18:19;;;;;;;5.10;3.70;;;;;;;38.92;24.93;100687.22;5025917;28;20234;-61
2023/08/14 07:20:47;;;;;;;6.82;3.92;;;;;;;39.23;24.63;100689.69;5031651;28;20206;-62
2023/08/14 07:23:16;;;;;;;7.22;4.10;;;;;;;39.04;25.44;100695.69;5036117;28;20214;-61
2023/08/14 07:25:45;;;;;;;6.10;3.95;;;;;;;39.06;25.17;100694.44;5029046;28;20221;-66
2023/08/14 07:28:13;;;;;;;3.67;3.38;;;;;;;39.07;24.88;100700.66;5024207;28;20198;-66
2023/08/14 07:30:42;;;;;;;4.50;3.58;;;;;;;39.02;25.63;100698.53;5030513;28;20252;-60
2023/08/14 07:33:13;;;;;;;3.78;3.20;;;;;;;39.18;24.29;100702.91;5024660;28;21247;-59
2023/08/14 07:35:42;;;;;;;6.15;5.55;;;;;;;39.43;23.71;100699.88;5027138;28;20206;-58
2023/08/14 07:38:10;;;;;;;5.60;4.57;;;;;;;39.50;24.10;100707.03;5024142;28;20234;-58
2023/08/14 07:40:37;;;;;;;4.57;3.33;;;;;;;39.21;24.38;100709.75;5031852;28;20300;-66
2023/08/14 07:43:07;;;;;;;4.13;3.03;;;;;;;38.38;25.38;100703.63;5029338;28;20252;-60
2023/08/14 07:45:36;;;;;;;4.38;2.75;;;;;;;38.03;25.72;100713.97;5031928;28;20214;-59
2023/08/14 07:48:04;;;;;;;3.80;2.55;;;;;;;38.53;24.96;100709.84;5031831;28;20230;-60
2023/08/14 07:50:32;;;;;;;3.90;2.67;;;;;;;39.37;23.94;100715.81;5030866;28;20210;-59
2023/08/14 07:53:00;;;;;;;3.40;3.10;;;;;;;39.82;23.95;100711.13;5027335;28;20198;-63
2023/08/14 07:55:29;;;;;;;5.60;3.10;;;;;;;40.42;23.51;100705.41;5032121;28;20635;-61
2023/08/14 07:57:57;;;;;;;4.07;3.10;;;;;;;41.38;21.67;100705.53;5028884;28;20202;-62
2023/08/14 08:00:26;;;;;;;3.85;2.92;;;;;;;41.36;21.24;100707.63;5028137;28;20198;-60
2023/08/14 08:02:54;;;;;;;6.05;3.17;;;;;;;41.45;21.63;100711.81;5027713;28;20260;-59
2023/08/14 08:05:22;;;;;;;2.70;2.50;;;;;;;41.13;21.97;100716.91;5016710;28;20211;-59
2023/08/14 08:07:50;;;;;;;3.60;2.50;;;;;;;40.13;22.69;100712.66;5029053;28;20206;-63
2023/08/14 08:10:19;;;;;;;3.17;2.95;;;;;;;39.75;24.32;100721.00;5032566;28;20290;-62
2023/08/14 08:12:47;;;;;;;3.45;2.83;;;;;;;39.85;23.73;100723.41;5030832;28;20198;-61
2023/08/14 08:15:18;;;;;;;4.20;2.95;;;;;;;39.11;23.97;100727.06;5031951;28;20577;-61
2023/08/14 08:17:47;;;;;;;2.63;2.42;;;;;;;38.73;25.36;100720.09;5028623;28;20210;-61
2023/08/14 08:20:16;;;;;;;5.65;3.40;;;;;;;38.04;26.21;100728.25;5029185;28;20590;-60
2023/08/14 08:22:44;;;;;;;3.90;2.72;;;;;;;38.08;26.83;100719.69;5030338;28;20921;-60
2023/08/14 08:25:12;;;;;;;3.67;2.58;;;;;;;37.90;26.73;100725.34;5030175;28;20215;-59
2023/08/14 08:27:40;;;;;;;2.97;2.53;;;;;;;37.13;27.24;100727.09;5030936;28;20288;-60
2023/08/14 08:30:09;;;;;;;2.45;2.22;;;;;;;36.14;28.61;100728.22;5031533;28;20665;-60
2023/08/14 08:32:39;;;;;;;2.97;2.60;;;;;;;34.92;30.33;100732.16;5028445;28;20237;-62
2023/08/14 08:35:09;;;;;;;3.42;3.00;;;;;;;34.08;32.19;100736.19;5026356;28;20211;-62
2023/08/14 08:37:37;;;;;;;5.10;2.60;;;;;;;34.27;32.45;100732.50;5025773;28;20207;-61
2023/08/14 08:40:06;;;;;;;5.68;2.95;;;;;;;34.28;31.76;100733.34;5028375;28;20213;-60
2023/08/14 08:42:35;;;;;;;6.03;2.83;;;;;;;34.05;32.79;100731.13;5027553;28;20716;-60
2023/08/14 08:45:05;;;;;;;2.80;2.53;;;;;;;33.84;33.56;100731.44;5028955;28;20199;-61
2023/08/14 08:47:38;;;;;;;2.70;2.50;;;;;;;34.04;33.33;100734.81;5030641;28;20617;-60
2023/08/14 08:50:07;;;;;;;3.03;2.72;;;;;;;33.88;33.15;100737.31;5027504;28;20209;-65
2023/08/14 08:52:37;;;;;;;3.03;2.53;;;;;;;33.59;34.24;100729.50;5028257;28;20321;-62
2023/08/14 08:55:08;;;;;;;4.88;3.17;;;;;;;33.27;34.52;100729.91;5028396;28;20206;-60
2023/08/14 08:57:36;;;;;;;2.80;2.60;;;;;;;32.90;35.95;100733.41;5031613;28;20206;-59
2023/08/14 09:00:06;;;;;;;3.70;3.40;;;;;;;32.75;36.80;100724.19;5031681;28;20206;-63
2023/08/14 09:02:34;;;;;;;4.25;2.90;;;;;;;33.01;36.37;100729.75;5031110;28;20728;-60
2023/08/14 09:05:02;;;;;;;3.03;2.72;;;;;;;33.19;35.88;100723.47;5029570;28;20218;-59
2023/08/14 09:07:30;;;;;;;3.88;3.22;;;;;;;33.10;36.17;100724.38;5031142;28;20202;-60
2023/08/14 09:10:00;;;;;;;3.53;3.20;;;;;;;32.88;35.94;100720.22;5031356;28;20206;-61
2023/08/14 09:12:28;;;;;;;3.47;3.15;;;;;;;32.61;36.75;100715.63;5031382;28;20206;-62
2023/08/14 09:15:04;;;;;;;4.95;3.20;;;;;;;33.11;36.58;100698.50;5031223;28;20268;-62
2023/08/14 09:17:32;;;;;;;3.42;3.13;;;;;;;34.26;34.22;100705.91;5031413;28;20213;-63
2023/08/14 09:20:00;;;;;;;3.20;3.00;;;;;;;35.61;31.49;100697.28;5030194;28;20213;-61
2023/08/14 09:22:42;;;;;;;3.80;3.05;;;;;;;35.91;30.68;100696.66;5025178;28;20757;-60
2023/08/14 09:25:12;;;;;;;3.70;3.40;;;;;;;36.06;30.83;100704.09;5027507;28;20202;-63
2023/08/14 09:27:40;;;;;;;4.22;3.83;;;;;;;36.58;29.49;100706.41;5031075;28;20288;-60
2023/08/14 09:30:11;;;;;;;3.78;3.35;;;;;;;37.12;29.35;100698.53;5031653;28;20206;-60
2023/08/14 09:32:40;;;;;;;5.75;3.33;;;;;;;36.59;29.82;100703.53;5030265;28;20233;-59
2023/08/14 09:35:09;;;;;;;3.92;3.22;;;;;;;36.34;30.71;100707.25;5030072;28;20213;-60
2023/08/14 09:37:37;;;;;;;3.28;3.08;;;;;;;35.47;31.04;100688.84;5029566;28;20210;-60
2023/08/14 09:40:16;;;;;;;4.05;3.50;;;;;;;34.78;33.02;100695.25;5019450;28;20678;-60
2023/08/14 09:42:45;;;;;;;4.50;3.80;;;;;;;34.57;33.73;100692.94;5029214;28;20222;-60
2023/08/14 09:45:14;;;;;;;4.03;3.60;;;;;;;34.59;33.33;100690.97;5011601;28;20282;-62
2023/08/14 09:47:43;;;;;;;3.95;3.65;;;;;;;34.13;34.25;100676.88;5025320;28;20744;-58
2023/08/14 09:50:16;;;;;;;4.07;3.78;;;;;;;33.26;35.78;100677.50;5030965;28;20199;-62
2023/08/14 09:52:45;;;;;;;4.25;3.80;;;;;;;32.29;37.74;100675.09;5030804;28;20268;-59
2023/08/14 09:55:15;;;;;;;3.80;3.50;;;;;;;31.54;39.36;100680.09;5030940;28;20313;-61
2023/08/14 09:57:43;;;;;;;4.45;4.00;;;;;;;31.04;41.20;100674.75;5031105;28;20260;-62
2023/08/14 10:00:13;;;;;;;4.60;4.28;;;;;;;30.61;42.16;100686.44;5030955;28;20792;-59
2023/08/14 10:02:45;;;;;;;6.60;3.97;;;;;;;30.27;42.52;100683.16;5029866;28;20218;-60
2023/08/14 10:05:13;;;;;;;4.95;4.00;;;;;;;30.09;43.57;100681.03;5030496;28;20199;-59
2023/08/14 10:07:44;;;;;;;4.00;3.60;;;;;;;30.05;43.43;100684.06;5030597;28;20223;-62
2023/08/14 10:10:14;;;;;;;6.10;4.13;;;;;;;30.36;43.30;100681.53;5030526;28;20206;-62
2023/08/14 10:12:46;;;;;;;4.03;3.70;;;;;;;31.64;41.27;100680.97;5020808;28;20720;-61
2023/08/14 10:15:18;;;;;;;4.30;3.90;;;;;;;32.84;38.51;100675.25;5028168;28;20206;-59
2023/08/14 10:17:51;;;;;;;4.25;3.90;;;;;;;34.05;36.12;100687.50;5030037;28;20202;-59
2023/08/14 10:20:22;;;;;;;5.50;4.10;;;;;;;34.63;34.50;100689.63;5030741;28;20653;-60
2023/08/14 10:22:52;;;;;;;5.07;4.10;;;;;;;35.16;33.17;100682.38;5031148;28;20616;-58
2023/08/14 10:25:23;;;;;;;4.32;3.67;;;;;;;35.71;32.19;100674.66;5016639;28;20295;-61
2023/08/14 10:27:52;;;;;;;4.68;4.18;;;;;;;36.20;31.39;100682.78;5030279;28;20234;-59
2023/08/14 10:30:23;;;;;;;9.25;4.13;;;;;;;36.43;31.26;100674.84;5030546;28;20203;-62
2023/08/14 10:32:53;;;;;;;4.45;4.05;;;;;;;36.50;31.27;100683.94;5030270;28;20229;-58
2023/08/14 10:35:23;;;;;;;4.53;3.85;;;;;;;36.94;30.85;100675.41;5030469;28;20320;-60
2023/08/14 10:37:52;;;;;;;4.55;4.10;;;;;;;37.60;29.45;100675.13;5030692;28;20206;-59
2023/08/14 10:40:51;;;;;;;7.13;3.47;;;;;;;38.25;28.12;100671.91;5029675;28;20202;-64
2023/08/14 10:43:25;;;;;;;7.20;3.20;;;;;;;38.82;27.52;100670.50;5017206;28;20203;-60
2023/08/14 10:45:53;;;;;;;4.22;3.72;;;;;;;39.42;26.74;100682.03;5030442;28;20202;-59
2023/08/14 10:48:22;;;;;;;5.22;3.13;;;;;;;39.85;26.60;100670.25;5030558;28;20666;-63
2023/08/14 10:50:57;;;;;;;4.50;3.47;;;;;;;39.83;25.79;100666.06;5030333;28;20555;-60
2023/08/14 10:53:25;;;;;;;4.88;3.08;;;;;;;39.33;25.94;100665.97;5030661;28;20231;-60
2023/08/14 10:55:55;;;;;;;3.40;3.20;;;;;;;39.33;26.57;100665.16;5033528;28;20665;-64
2023/08/14 10:58:40;;;;;;;3.30;3.00;;;;;;;39.16;26.40;100669.91;5029714;28;20233;-60
2023/08/14 11:01:10;;;;;;;4.93;3.45;;;;;;;38.51;27.54;100662.56;5027075;28;20257;-61
2023/08/14 11:03:58;;;;;;;4.95;3.70;;;;;;;37.69;29.27;100663.28;5028089;28;20211;-62
2023/08/14 11:06:27;;;;;;;5.57;3.72;;;;;;;37.46;29.83;100669.47;5028801;28;20780;-60
2023/08/14 11:09:00;;;;;;;3.47;3.17;;;;;;;37.75;28.44;100662.56;5034176;28;20217;-61
2023/08/14 11:11:29;;;;;;;3.33;3.00;;;;;;;38.20;27.37;100666.22;5032689;28;20206;-60
2023/08/14 11:13:58;;;;;;;4.15;3.15;;;;;;;38.32;26.82;100664.75;5033716;28;20253;-62
2023/08/14 11:16:26;;;;;;;3.72;3.42;;;;;;;38.42;27.38;100654.59;5033951;28;20595;-61
2023/08/14 11:18:55;;;;;;;4.13;3.40;;;;;;;38.58;27.29;100658.13;5019530;28;20209;-61
2023/08/14 11:21:25;;;;;;;5.22;3.47;;;;;;;38.67;27.04;100651.63;5033976;28;20662;-62
2023/08/14 11:23:59;;;;;;;5.72;2.80;;;;;;;38.63;26.49;100644.94;5028337;28;20216;-61
2023/08/14 11:26:30;;;;;;;4.60;2.78;;;;;;;38.37;26.67;100642.69;5025089;28;20620;-60
2023/08/14 11:28:58;;;;;;;3.05;2.60;;;;;;;38.15;27.00;100641.75;5033058;28;20604;-60
2023/08/14 11:31:26;;;;;;;3.22;2.50;;;;;;;37.79;27.46;100646.91;5033701;28;20711;-61
2023/08/14 11:34:06;;;;;;;2.75;2.55;;;;;;;37.31;27.85;100647.03;5033034;28;20214;-63